Wheeling, Louisiana
Current Conditions -  °F | °C
As of 9:35 PM on Saturday 22 Nov 2014 (Local Time) from KIER Reporting Station
Light Rain Light Rain  
Wind Chill: 62°   Ceiling: 1200
Heat Index: 62°   Visibility: 7mi
Dew Point: 61°   Wind: 7mph
Humidity: 97%   Direction: 120°ESE
Pressure: 29.86"   Gusts: NA
Location:  31.6668°N, 92.8023°W
Report Text: KIER 230335Z AUTO 12006KT 7SM -RA OVC012 17/16 A2986 RMK AO2 T01680163
Loading
Personal Weather Stations






























Interactive Weather Map New forecast layout! Learn more

10-Day Weather Forecast

Advertisements
Track Severe Weather on mobile